x

South Santa Rosa Is. Ca (46069) Wave Buoy

12:50pm - Wed 27th Jul 2016 All times are PDT. -7 hours from GMT.

  • Sig Wave height 5.2ft
  • Swell Direction
  • Peak Period 10s
  • Average Period 8s
  • Wind
    11mph, 16mph gusts
  • Sea Temp 67°f
  • Air Temp 61°f
  • Sea Pressure 1014.2mb
  • South Santa Rosa Is. Ca
  • South Santa Rosa Is. Ca

More Historic Weather Station data

Upgrade to MSW Pro to gain access to the past 30 days of data for over 8000 Wavebouys and Weather Stations around the globe.

Join Pro

Comparision Forecast

View Surf forecast
   
Wed 07/27 12:50pm 5ft 10s 8s 11 16 mph 1014.2mb 67f 61f
11:50am 5.5ft 9s 8s 9 11 mph 1014.4mb 66f 61f
10:50am 5ft 9s 8s 9 11 mph 1013.9mb 66f 60f
9:50am 5.5ft 10s 8s 9 11 mph 1013.8mb 66f 60f
8:50am 5.5ft 10s 8s 9 13 mph 1013.6mb 66f 60f
7:50am 5ft 10s 7s 9 11 mph 1013.1mb 66f 60f
6:50am 6ft 10s 8s 11 13 mph 1012.7mb 67f 60f
5:50am 6.5ft 9s 8s 11 13 mph 1011.9mb 67f 60f
4:50am 5.5ft 10s 7s 11 16 mph 1011.5mb 67f 60f
3:50am 6ft 10s 7s 11 16 mph 1011.7mb 66f 59f
2:50am 5.5ft 10s 7s 11 13 mph 1011.6mb 66f 59f
1:50am 5.5ft 10s 7s 11 16 mph 1011.9mb 66f 60f
12:50am 5.5ft 10s 7s 11 13 mph 1012.2mb 66f 60f
Tue 07/26 11:50pm 5.5ft 9s 7s 13 18 mph 1011.9mb 67f 60f
10:50pm 6ft 9s 7s 16 20 mph 1011.9mb 67f 60f
9:50pm 6ft 9s 7s 16 20 mph 1011.5mb 67f 60f
8:50pm 6ft 9s 7s 16 20 mph 1011.1mb 67f 60f
7:50pm 5.5ft 8s 7s 16 20 mph 1011.1mb 67f 60f
6:50pm 5ft 9s 7s 16 20 mph 1011.2mb 67f 60f
5:50pm 5ft 10s 7s 16 20 mph 1011.4mb 67f 60f
4:50pm 4.5ft 10s 7s 18 20 mph 1011.3mb 67f 60f
3:50pm 5ft 9s 7s 13 18 mph 1012.1mb 67f 61f
2:50pm 5ft 11s 8s 13 16 mph 1012.5mb 67f 61f
1:50pm 5ft 14s 8s 9 11 mph 1013.1mb 67f 61f
12:50pm 5ft 10s 7s 7 9 mph 1013.3mb 66f 61f
11:50am 5.5ft 9s 8s 9 11 mph 1013.1mb 66f 61f
10:50am 5ft 9s 7s 7 11 mph 1013.3mb 66f 61f
9:50am 5ft 9s 7s 9 11 mph 1013mb 66f 61f
8:50am 5ft 10s 7s 7 9 mph 1013.5mb 66f 60f
7:50am 5ft 9s 7s 9 13 mph 1013.2mb 66f 60f
6:50am 5.5ft 9s 7s 7 9 mph 1012.9mb 66f 60f
5:50am 5ft 8s 7s 7 9 mph 1012.7mb 66f 60f
4:50am 6ft 10s 8s 7 9 mph 1012.6mb 66f 59f
3:50am 5.5ft 10s 7s 9 13 mph 1012.7mb 67f 59f
2:50am 6ft 9s 7s 9 11 mph 1012.9mb 66f 59f
1:50am 7ft 9s 7s 11 13 mph 1012.7mb 66f 59f
12:50am 7ft 10s 8s 11 13 mph 1012.9mb 66f 58f
Mon 07/25 11:50pm 6.5ft 10s 8s 11 16 mph 1013.2mb 66f 59f
10:50pm 6ft 9s 7s 11 18 mph 1013.1mb 66f 58f
9:50pm 6.5ft 9s 7s 11 13 mph 1013.2mb 66f 59f
8:50pm 6ft 9s 7s 16 20 mph 1012.6mb 66f 60f
7:50pm 6ft 10s 7s 16 20 mph 1012.4mb 66f 60f
6:50pm 6ft 10s 7s 13 18 mph 1012.3mb 67f 61f
5:50pm 5.5ft 10s 7s 16 18 mph 1012.2mb 67f 62f
4:50pm 6ft 10s 8s 13 16 mph 1012.8mb 67f 63f
3:50pm 6ft 10s 8s 13 16 mph 1013.4mb 67f 63f
2:50pm 6ft 8s 8s 11
mph
1014.1mb 67f 63f
1:50pm 5ft 9s 7s 7
mph
1014.9mb 68f 64f
12:50pm 5.5ft 9s 7s 4 7 mph 1015.3mb 67f 63f
10:50am 6ft 9s 7s 4 7 mph 1015.6mb 67f 62f
9:50am 6ft 15s 7s 4 7 mph 1015.3mb 67f 61f
8:50am 6.5ft 10s 8s 4 7 mph 1015.1mb 67f 60f
7:50am 6ft 10s 7s 7 9 mph 1014.5mb 66f 60f
6:50am 6ft 10s 8s 7 9 mph 1014.1mb 67f 59f
4:50am 7ft 10s 8s 7 11 mph 1013.4mb 66f 58f
3:50am 7.5ft 10s 8s 2 4 mph 1013.4mb 66f 58f
2:50am 7ft 10s 8s 2 4 mph 1013.2mb 66f 58f
1:50am 7ft 10s 8s 4 9 mph 1013.2mb 66f 57f
12:50am 7ft 9s 8s 7 9 mph 1013.4mb 65f 57f
Sun 07/24 11:50pm 7ft 10s 7s 11 13 mph 1013.2mb 65f 58f
10:50pm 7ft 10s 7s 13 18 mph 1013.1mb 66f 58f
9:50pm 7ft 10s 7s 16 18 mph 1012.9mb 66f 59f
8:50pm 7ft 9s 7s 16 18 mph 1012.5mb 66f 60f
7:50pm 7ft 9s 7s 18 22 mph 1012.1mb 66f 60f
6:50pm 7ft 10s 8s 18 20 mph 1012.1mb 66f 60f
5:50pm 5.5ft 10s 7s 16 18 mph 1012.1mb 67f 61f
4:50pm 6ft 10s 7s 16 18 mph 1012.4mb 67f 62f
3:50pm 7ft 9s 7s 13 16 mph 1012.6mb 67f 62f
2:50pm 6ft 9s 7s 11 13 mph 1013.3mb 66f 63f
1:50pm 6.5ft 9s 7s 7 9 mph 1013.5mb 65f 67f
12:50pm 7.5ft 9s 7s 4
mph
1013.5mb 65f 67f
11:50am 7ft 9s 7s 4 9 mph 1013.4mb 65f 66f
10:50am 7ft 9s 7s 9 11 mph 1012.9mb 65f 63f
9:50am 7ft 9s 7s 9 11 mph 1012.5mb 65f 62f
8:50am 7.5ft 9s 7s 13 16 mph 1011.8mb 65f 62f
7:50am 8ft 9s 8s 13 16 mph 1011.3mb 65f 62f
6:50am 7.5ft 9s 8s 11 13 mph 1010.6mb 65f 62f
5:50am 8ft 9s 8s 11 13 mph 1010mb 65f 62f
4:50am 8ft 9s 8s 13 16 mph 1009.6mb 65f 61f
3:50am 7ft 10s 8s 11 13 mph 1009.2mb 64f 62f
2:50am 8ft 10s 8s 11 13 mph 1009.3mb 64f 61f
1:50am 7.5ft 9s 8s 11 13 mph 1009.3mb 61f 60f
12:50am 8ft 9s 7s 13 16 mph 1009.5mb 61f 60f
Sat 07/23 11:50pm 8.5ft 9s 7s 16 18 mph 1009.7mb 61f 60f
10:50pm 9.5ft 9s 7s 16 20 mph 1009.8mb 61f 60f
9:50pm 9ft 8s 7s 20 22 mph 1009.5mb 61f 60f